Fuji Galaxy — V7UF2 — position and weather

sailwx.info

Track history (hours):
 
Tides and Currents Weather Stations Pressure Air Temp Water Temp Dewpoint Dewpoint Depression Visibility Wind Speed Wind Dir Waves Ship Positions

Fuji Galaxy

Last reported at 2017-Oct-06 12:17 UTC. Time now 2017-Oct-17 05:47 UTC.
Position N 48°31' W 126°38'.
Warning: this ship's position is 10 days out of date.

Length 152 m; draft 10.1 m.

Type: Ship (hazmat cat B). MMSI: 538004002.

Date/timePositionNaut miles runAvg speedWind from/ knotsBaromVisibWave heightAir tempDewpointWater temp
2017-Oct-06 12:17N 48°31' W 126°38'513.1
2017-Oct-06 11:55N 48°31' W 126°30'513.0
2017-Oct-06 11:30N 48°31' W 126°22'713.2
2017-Oct-06 11:00N 48°31' W 126°12'713.2
2017-Oct-06 10:31N 48°31' W 126°02'713.2
2017-Oct-06 10:00N 48°31' W 125°52'612.9
2017-Oct-06 09:31N 48°31' W 125°43'713.1
2017-Oct-06 09:00N 48°31' W 125°33'713.8
2017-Oct-06 08:30N 48°31' W 125°22'713.6
2017-Oct-06 08:01N 48°31' W 125°12'713.2
2017-Oct-06 07:31N 48°31' W 125°02'713.3
2017-Oct-06 07:00N 48°31' W 124°52'714.5
2017-Oct-06 06:30N 48°30' W 124°41'714.7
2017-Oct-06 06:00N 48°27' W 124°31'815.1
2017-Oct-06 05:30N 48°24' W 124°21'815.3
2017-Oct-06 05:01N 48°21' W 124°10'815.5
2017-Oct-06 04:30N 48°18' W 123°59'815.3
2017-Oct-06 04:00N 48°17' W 123°48'816.1
2017-Oct-06 03:30N 48°16' W 123°36'713.2
2017-Oct-06 03:00N 48°20' W 123°27'510.6
2017-Oct-06 02:30N 48°23' W 123°21'612.7
2017-Oct-06 02:00N 48°25' W 123°12'713.1
2017-Oct-06 01:30N 48°32' W 123°13'612.7
2017-Oct-06 01:00N 48°38' W 123°14'510.5
2017-Oct-06 00:30N 48°43' W 123°12'612.3
2017-Oct-06 00:00N 48°46' W 123°04'5 9.0
2017-Oct-05 23:30N 48°50' W 123°03'713.0
2017-Oct-05 23:00N 48°55' W 123°10'612.6
2017-Oct-05 22:30N 48°59' W 123°17'612.7
2017-Oct-05 22:00N 49°04' W 123°23'612.8
2017-Oct-05 21:30N 49°10' W 123°22'612.8
2017-Oct-05 21:00N 49°17' W 123°20'611.6
2017-Oct-05 20:30N 49°19' W 123°12'4 8.0
2017-Oct-05 20:00N 49°18' W 123°06'4 8.0
2017-Oct-05 19:30N 49°18' W 122°60'1 2.4
2017-Oct-05 19:00N 49°18' W 122°58'2 3.1
2017-Oct-05 18:30N 49°18' W 122°56'2 4.6
2017-Oct-05 18:00N 49°17' W 122°52'0 0.0
2017-Oct-05 17:30N 49°17' W 122°52'0 0.0
2017-Oct-05 17:00N 49°17' W 122°52'0 0.0
2017-Oct-05 15:30N 49°17' W 122°52'0 0.0
2017-Oct-05 14:51N 49°17' W 122°52'0 0.0
2017-Oct-05 14:30N 49°17' W 122°52'0 0.0
2017-Oct-05 13:57N 49°17' W 122°52'0 0.0
2017-Oct-05 13:30N 49°17' W 122°52'0 0.0
2017-Oct-05 13:00N 49°17' W 122°52'0 0.0
2017-Oct-05 12:30N 49°17' W 122°52'0 0.0
2017-Oct-05 12:00N 49°17' W 122°52'0 0.0
2017-Oct-05 11:30N 49°17' W 122°52'0 0.0
2017-Oct-05 10:54N 49°17' W 122°52'0 0.0
2017-Oct-05 10:30N 49°17' W 122°52'0 0.0
2017-Oct-05 10:00N 49°17' W 122°52'0 0.0
2017-Oct-05 09:24N 49°17' W 122°52'0 0.0
2017-Oct-05 09:00N 49°17' W 122°52'0 0.0
2017-Oct-05 08:30N 49°17' W 122°52'0 0.0
2017-Oct-05 08:00N 49°17' W 122°52'0 0.0
2017-Oct-05 07:30N 49°17' W 122°52'0 0.0
2017-Oct-05 07:00N 49°17' W 122°52'0 0.0
2017-Oct-05 06:30N 49°17' W 122°52'0 0.0
2017-Oct-05 06:00N 49°17' W 122°52'0 0.0
2017-Oct-05 05:24N 49°17' W 122°52'0 0.0
2017-Oct-05 04:57N 49°17' W 122°52'0 0.0
2017-Oct-05 04:30N 49°17' W 122°52'0 0.0
2017-Oct-05 03:57N 49°17' W 122°52'0 0.0
2017-Oct-05 03:30N 49°17' W 122°52'0 0.0
2017-Oct-05 03:00N 49°17' W 122°52'0 0.0
2017-Oct-05 02:30N 49°17' W 122°52'0 0.0
2017-Oct-05 02:00N 49°17' W 122°52'0 0.0
2017-Oct-05 01:27N 49°17' W 122°52'0 0.0
2017-Oct-05 01:00N 49°17' W 122°52'0 0.0
2017-Oct-05 00:30N 49°17' W 122°52'0 0.0
2017-Oct-04 23:57N 49°17' W 122°52'0 0.0
2017-Oct-04 23:24N 49°17' W 122°52'0 0.0
2017-Oct-04 22:54N 49°17' W 122°52'0 0.0
2017-Oct-04 22:30N 49°17' W 122°52'0 0.0
2017-Oct-04 21:54N 49°17' W 122°52'0 0.0
2017-Oct-04 21:30N 49°17' W 122°52'0 0.0
2017-Oct-04 21:00N 49°17' W 122°52'0 0.0
2017-Oct-04 20:30N 49°17' W 122°52'0 0.0
2017-Oct-04 20:00N 49°17' W 122°52'0 0.0
2017-Oct-04 19:30N 49°17' W 122°52'0 0.0
2017-Oct-04 19:00N 49°17' W 122°52'0 0.0
2017-Oct-04 18:30N 49°17' W 122°52'0 0.0
2017-Oct-04 17:54N 49°17' W 122°52'0 0.0
2017-Oct-04 17:27N 49°17' W 122°52'0 0.0
2017-Oct-04 17:00N 49°17' W 122°52'0 0.0
2017-Oct-04 16:30N 49°17' W 122°52'0 0.0
2017-Oct-04 16:00N 49°17' W 122°52'0 0.0
2017-Oct-04 15:30N 49°17' W 122°52'0 0.0
2017-Oct-04 15:00N 49°17' W 122°52'0 0.0
2017-Oct-04 14:30N 49°17' W 122°52'0 0.0
2017-Oct-04 14:00N 49°17' W 122°52'0 0.0
2017-Oct-04 13:31N 49°17' W 122°52'1 3.0
2017-Oct-04 13:01N 49°18' W 122°54'3 6.8
2017-Oct-04 12:31N 49°18' W 122°60'1 3.0
2017-Oct-04 12:00N 49°18' W 123°02'0 0.0
2017-Oct-04 11:27N 49°18' W 123°02'0 0.0
2017-Oct-04 11:00N 49°18' W 123°02'0 0.0
2017-Oct-04 10:30N 49°18' W 123°02'0 0.0
2017-Oct-04 10:00N 49°18' W 123°02'0 0.0
2017-Oct-04 09:30N 49°18' W 123°02'0 0.0
2017-Oct-04 08:48N 49°18' W 123°02'0 0.1
2017-Oct-04 08:30N 49°18' W 123°02'0 0.1
2017-Oct-04 07:57N 49°18' W 123°02'0 0.0
2017-Oct-04 07:30N 49°18' W 123°02'0 0.0
2017-Oct-04 07:00N 49°18' W 123°02'0 0.0
2017-Oct-04 06:30N 49°18' W 123°02'0 0.0
2017-Oct-04 06:00N 49°18' W 123°02'0 0.0
2017-Oct-04 05:30N 49°18' W 123°02'0 0.0
2017-Oct-04 05:00N 49°18' W 123°02'0 0.0
2017-Oct-04 04:30N 49°18' W 123°02'0 0.1
2017-Oct-04 04:00N 49°18' W 123°02'0 0.1
2017-Oct-04 03:30N 49°18' W 123°02'0 0.0
2017-Oct-04 03:00N 49°18' W 123°02'0 0.0
2017-Oct-04 02:30N 49°18' W 123°02'0 0.0
2017-Oct-04 02:00N 49°18' W 123°02'0 0.0
2017-Oct-04 01:30N 49°18' W 123°02'0 0.0
2017-Oct-04 01:00N 49°18' W 123°02'0 0.0
2017-Oct-04 00:30N 49°18' W 123°02'0 0.0
2017-Oct-03 23:54N 49°18' W 123°02'0 0.0
2017-Oct-03 23:30N 49°18' W 123°02'0 0.0
2017-Oct-03 23:00N 49°18' W 123°02'0 0.0
2017-Oct-03 22:30N 49°18' W 123°02'0 0.0
2017-Oct-03 22:00N 49°18' W 123°02'0 0.0
2017-Oct-03 21:30N 49°18' W 123°02'0 0.0
2017-Oct-03 21:00N 49°18' W 123°02'0 0.0
2017-Oct-03 20:30N 49°18' W 123°02'0 0.0
2017-Oct-03 20:00N 49°18' W 123°02'0 0.0
2017-Oct-03 19:30N 49°18' W 123°02'0 0.0
2017-Oct-03 17:48N 49°18' W 123°02'0 0.0
2017-Oct-03 17:30N 49°18' W 123°02'0 0.0
2017-Oct-03 16:54N 49°18' W 123°02'0 0.0
2017-Oct-03 16:30N 49°18' W 123°02'0 0.0
2017-Oct-03 16:00N 49°18' W 123°02'0 0.0
2017-Oct-03 15:30N 49°18' W 123°02'0 0.0
2017-Oct-03 14:57N 49°18' W 123°02'0 0.0
2017-Oct-03 13:57N 49°18' W 123°02'0 0.0
2017-Oct-03 13:27N 49°18' W 123°02'0 0.0
2017-Oct-03 12:45N 49°18' W 123°02'0 0.0
2017-Oct-03 12:21N 49°18' W 123°02'0 0.0
2017-Oct-03 11:57N 49°18' W 123°02'0 0.0
2017-Oct-03 11:21N 49°18' W 123°02'0 0.0
2017-Oct-03 10:57N 49°18' W 123°02'0 0.0
2017-Oct-03 10:30N 49°18' W 123°02'0 0.0
2017-Oct-03 09:51N 49°18' W 123°02'0 0.0
2017-Oct-03 09:30N 49°18' W 123°02'0 0.0
2017-Oct-03 09:00N 49°18' W 123°02'0 0.0
2017-Oct-03 08:30N 49°18' W 123°02'0 0.0
2017-Oct-03 08:00N 49°18' W 123°02'0 0.0
2017-Oct-03 07:30N 49°18' W 123°02'0 0.0
2017-Oct-03 07:00N 49°18' W 123°02'0 0.0
2017-Oct-03 06:30N 49°18' W 123°02'0 0.0
2017-Oct-03 06:00N 49°18' W 123°02'0 0.0
2017-Oct-03 05:30N 49°18' W 123°02'0 0.0
2017-Oct-03 05:00N 49°18' W 123°02'0 0.0
2017-Oct-03 04:27N 49°18' W 123°02'0 0.0
2017-Oct-03 03:57N 49°18' W 123°02'0 0.0
2017-Oct-03 03:27N 49°18' W 123°02'0 0.0
2017-Oct-03 03:00N 49°18' W 123°02'0 0.0
2017-Oct-03 02:27N 49°18' W 123°02'0 0.0
2017-Oct-03 01:39N 49°18' W 123°02'0 0.0
2017-Oct-03 01:09N 49°18' W 123°02'0 0.0
2017-Oct-03 00:51N 49°18' W 123°02'0 0.0
2017-Oct-03 00:30N 49°18' W 123°02'0 0.0
2017-Oct-02 23:46N 49°18' W 123°02'0 0.8
2017-Oct-02 23:30N 49°18' W 123°02'1 2.8
2017-Oct-02 23:00N 49°17' W 123°04'0 0.1
2017-Oct-02 22:30N 49°17' W 123°04'0 0.0
2017-Oct-02 21:59N 49°17' W 123°04'0 0.0
2017-Oct-02 21:29N 49°17' W 123°04'0 0.0
2017-Oct-02 20:59N 49°17' W 123°04'0 0.0
2017-Oct-02 20:29N 49°17' W 123°04'0 0.0
2017-Oct-02 19:59N 49°17' W 123°04'0 0.0
2017-Oct-02 19:29N 49°17' W 123°04'0 0.0
2017-Oct-02 18:59N 49°17' W 123°04'0 0.0
2017-Oct-02 18:29N 49°17' W 123°04'0 0.0
2017-Oct-02 17:59N 49°17' W 123°04'0 0.0
2017-Oct-02 17:29N 49°17' W 123°04'0 0.0
2017-Oct-02 16:59N 49°17' W 123°04'0 0.0
2017-Oct-02 16:29N 49°17' W 123°04'0 0.0
2017-Oct-02 15:59N 49°17' W 123°04'0 0.0
2017-Oct-02 15:29N 49°17' W 123°04'0 0.0
2017-Oct-02 14:59N 49°17' W 123°04'0 0.0
2017-Oct-02 14:29N 49°17' W 123°04'0 0.0
2017-Oct-02 13:59N 49°17' W 123°04'0 0.0
2017-Oct-02 13:29N 49°17' W 123°04'0 0.0
2017-Oct-02 12:59N 49°17' W 123°04'0 0.0
2017-Oct-02 12:29N 49°17' W 123°04'0 0.0
2017-Oct-02 11:59N 49°17' W 123°04'0 0.0
2017-Oct-02 11:29N 49°17' W 123°04'0 0.0
2017-Oct-02 10:59N 49°17' W 123°04'0 0.0
2017-Oct-02 10:29N 49°17' W 123°04'0 0.0
2017-Oct-02 09:59N 49°17' W 123°04'0 0.0
2017-Oct-02 09:29N 49°17' W 123°04'0 0.0
2017-Oct-02 08:59N 49°17' W 123°04'0 0.0
2017-Oct-02 08:29N 49°17' W 123°04'0 0.0
2017-Oct-02 07:59N 49°17' W 123°04'0 0.0
2017-Oct-02 07:29N 49°17' W 123°04'0 0.0
2017-Oct-02 06:59N 49°17' W 123°04'0 0.0
2017-Oct-02 06:29N 49°17' W 123°04'0 0.0
2017-Oct-02 05:59N 49°17' W 123°04'0 0.0
2017-Oct-02 05:29N 49°17' W 123°04'0 0.0
2017-Oct-02 04:59N 49°17' W 123°04'0 0.0
2017-Oct-02 04:29N 49°17' W 123°04'0 0.0
2017-Oct-02 03:59N 49°17' W 123°04'0 0.0
2017-Oct-02 03:29N 49°17' W 123°04'0 0.0
2017-Oct-02 02:59N 49°17' W 123°04'0 0.0
2017-Oct-02 02:29N 49°17' W 123°04'0 0.0
2017-Oct-02 01:59N 49°17' W 123°04'0 0.0
2017-Oct-02 01:29N 49°17' W 123°04'0 0.0
2017-Oct-02 00:59N 49°17' W 123°04'0 0.0
2017-Oct-02 00:29N 49°17' W 123°04'0 0.0
2017-Oct-01 23:59N 49°17' W 123°04'0 0.0
2017-Oct-01 23:29N 49°17' W 123°04'0 0.0
2017-Oct-01 22:59N 49°17' W 123°04'0 0.0
2017-Oct-01 22:29N 49°17' W 123°04'0 0.0
2017-Oct-01 21:59N 49°17' W 123°04'0 0.0
2017-Oct-01 21:29N 49°17' W 123°04'0 0.0
2017-Oct-01 20:59N 49°17' W 123°04'0 0.0
2017-Oct-01 20:29N 49°17' W 123°04'0 0.0
2017-Oct-01 19:59N 49°17' W 123°04'0 0.0
2017-Oct-01 19:29N 49°17' W 123°04'0 0.0
2017-Oct-01 18:59N 49°17' W 123°04'0 0.0
2017-Oct-01 18:29N 49°17' W 123°04'0 0.0
2017-Oct-01 17:59N 49°17' W 123°04'0 0.0
2017-Oct-01 17:29N 49°17' W 123°04'0 0.0
2017-Oct-01 16:59N 49°17' W 123°04'0 0.0
2017-Oct-01 16:29N 49°17' W 123°04'0 0.0
2017-Oct-01 15:59N 49°17' W 123°04'0 0.0
2017-Oct-01 15:29N 49°17' W 123°04'0 0.0
2017-Oct-01 14:59N 49°17' W 123°04'0 0.0
2017-Oct-01 14:29N 49°17' W 123°04'0 0.0
2017-Oct-01 13:59N 49°17' W 123°04'0 0.0
2017-Oct-01 13:29N 49°17' W 123°04'0 0.0
2017-Oct-01 12:59N 49°17' W 123°04'0 0.0
2017-Oct-01 12:29N 49°17' W 123°04'0 0.0
2017-Oct-01 11:59N 49°17' W 123°04'0 0.0
2017-Oct-01 11:29N 49°17' W 123°04'0 0.0
2017-Oct-01 10:59N 49°17' W 123°04'0 0.0
2017-Oct-01 10:29N 49°17' W 123°04'0 0.0
2017-Oct-01 09:59N 49°17' W 123°04'0 0.0
2017-Oct-01 09:29N 49°17' W 123°04'0 0.0
2017-Oct-01 08:59N 49°17' W 123°04'0 0.0
2017-Oct-01 08:29N 49°17' W 123°04'0 0.0
2017-Oct-01 07:59N 49°17' W 123°04'0 0.0
2017-Oct-01 07:29N 49°17' W 123°04'0 0.0
2017-Oct-01 06:59N 49°17' W 123°04'0 0.0
2017-Oct-01 06:30N 49°17' W 123°04'0 0.8
2017-Oct-01 06:00N 49°18' W 123°04'2 3.2
2017-Oct-01 05:30N 49°18' W 123°07'3 7.0
2017-Oct-01 05:00N 49°19' W 123°12'611.0
2017-Oct-01 04:30N 49°15' W 123°19'713.8
2017-Oct-01 04:00N 49°09' W 123°20'611.6
2017-Oct-01 03:30N 49°03' W 123°19'713.7
2017-Oct-01 03:00N 48°58' W 123°11'  
2017-Sep-28 02:40N 38°07' W 126°25'613.5
2017-Sep-28 02:13N 38°04' W 126°18'313.5
2017-Sep-28 01:59N 38°03' W 126°14'813.6
2017-Sep-28 01:26N 38°00' W 126°05'614.0
2017-Sep-28 01:00N 37°59' W 125°58'914.0
2017-Sep-28 00:21N 37°58' W 125°46'614.3
2017-Sep-27 23:58N 37°56' W 125°39'714.3
2017-Sep-27 23:30N 37°54' W 125°32'714.5
2017-Sep-27 23:00N 37°52' W 125°23'714.9
2017-Sep-27 22:30N 37°51' W 125°13'714.4
2017-Sep-27 22:00N 37°49' W 125°05'714.7
2017-Sep-27 21:30N 37°48' W 124°55'714.8
2017-Sep-27 21:00N 37°47' W 124°46'714.6
2017-Sep-27 20:30N 37°45' W 124°37'714.1
2017-Sep-27 20:00N 37°44' W 124°28'714.5
2017-Sep-27 19:30N 37°42' W 124°19'714.4
2017-Sep-27 19:00N 37°41' W 124°10'714.6
2017-Sep-27 18:30N 37°40' W 124°01'714.5
2017-Sep-27 18:00N 37°38' W 123°53'714.1
2017-Sep-27 17:30N 37°36' W 123°44'714.0
2017-Sep-27 17:00N 37°35' W 123°35'714.3
2017-Sep-27 16:30N 37°33' W 123°27'714.3
2017-Sep-27 16:00N 37°31' W 123°18'713.4
2017-Sep-27 15:30N 37°31' W 123°09'714.1
2017-Sep-27 15:00N 37°35' W 123°02'714.5
2017-Sep-27 14:30N 37°39' W 122°54'714.4
2017-Sep-27 14:00N 37°43' W 122°47'612.0
2017-Sep-27 13:30N 37°46' W 122°40'612.5
2017-Sep-27 13:00N 37°48' W 122°33'612.4
2017-Sep-27 12:30N 37°50' W 122°25'510.7
2017-Sep-27 12:00N 37°46' W 122°21'0 0.3
2017-Sep-27 11:30N 37°46' W 122°21'0 0.0
2017-Sep-27 11:00N 37°46' W 122°21'0 0.0
2017-Sep-27 10:30N 37°46' W 122°21'0 0.0
2017-Sep-27 10:00N 37°46' W 122°21'0 0.0
2017-Sep-27 09:30N 37°46' W 122°21'0 0.0
2017-Sep-27 09:00N 37°46' W 122°21'0 0.0
2017-Sep-27 08:30N 37°46' W 122°21'0 0.1
2017-Sep-27 08:00N 37°46' W 122°21'0 0.1
2017-Sep-27 07:30N 37°46' W 122°21'0 0.2
2017-Sep-27 07:00N 37°46' W 122°21'0 0.1
2017-Sep-27 06:30N 37°46' W 122°21'0 0.0
2017-Sep-27 06:00N 37°46' W 122°21'0 0.1
2017-Sep-27 05:30N 37°46' W 122°21'0 0.0
2017-Sep-27 05:00N 37°46' W 122°21'0 0.0
2017-Sep-27 04:30N 37°46' W 122°21'0 0.0
2017-Sep-27 04:00N 37°46' W 122°21'0 0.1
2017-Sep-27 03:30N 37°46' W 122°21'2 3.3
2017-Sep-27 03:00N 37°48' W 122°22'611.3
2017-Sep-27 02:30N 37°53' W 122°25'3 5.2
2017-Sep-27 02:00N 37°55' W 122°25'0 0.0
2017-Sep-27 01:27N 37°55' W 122°25'0 0.0
2017-Sep-26 23:06N 37°55' W 122°25'0 0.0
2017-Sep-26 21:33N 37°55' W 122°25'0 0.0
2017-Sep-26 21:24N 37°55' W 122°25'0 0.0
2017-Sep-26 19:15N 37°55' W 122°25'0 0.0
2017-Sep-26 18:57N 37°55' W 122°25'0 0.0
2017-Sep-26 17:48N 37°55' W 122°25'0 0.0
2017-Sep-26 16:48N 37°55' W 122°25'0 0.0
2017-Sep-26 16:24N 37°55' W 122°25'0 0.0
2017-Sep-26 14:09N 37°55' W 122°25'0 0.0
2017-Sep-26 13:45N 37°55' W 122°25'0 0.2
2017-Sep-26 13:30N 37°55' W 122°25'0 0.1
2017-Sep-26 13:00N 37°55' W 122°25'1 1.6
2017-Sep-26 12:30N 37°55' W 122°24'  
Track history (hours):
 
Tides and Currents Weather Stations Pressure Air Temp Water Temp Dewpoint Dewpoint Depression Visibility Wind Speed Wind Dir Waves Ship Positions

Fuji Galaxy

Last reported at 2017-Oct-06 12:17 UTC. Time now 2017-Oct-17 05:47 UTC.
Position N 48°31' W 126°38'.
Warning: this ship's position is 10 days out of date.

Length 152 m; draft 10.1 m.

Type: Ship (hazmat cat B). MMSI: 538004002.

Date/timePositionNaut miles runAvg speedWind from/ knotsBaromVisibWave heightAir tempDewpointWater temp
2017-Oct-06 12:17N 48°31' W 126°38'513.1
2017-Oct-06 11:55N 48°31' W 126°30'513.0
2017-Oct-06 11:30N 48°31' W 126°22'713.2
2017-Oct-06 11:00N 48°31' W 126°12'713.2
2017-Oct-06 10:31N 48°31' W 126°02'713.2
2017-Oct-06 10:00N 48°31' W 125°52'612.9
2017-Oct-06 09:31N 48°31' W 125°43'713.1
2017-Oct-06 09:00N 48°31' W 125°33'713.8
2017-Oct-06 08:30N 48°31' W 125°22'713.6
2017-Oct-06 08:01N 48°31' W 125°12'713.2
2017-Oct-06 07:31N 48°31' W 125°02'713.3
2017-Oct-06 07:00N 48°31' W 124°52'714.5
2017-Oct-06 06:30N 48°30' W 124°41'714.7
2017-Oct-06 06:00N 48°27' W 124°31'815.1
2017-Oct-06 05:30N 48°24' W 124°21'815.3
2017-Oct-06 05:01N 48°21' W 124°10'815.5
2017-Oct-06 04:30N 48°18' W 123°59'815.3
2017-Oct-06 04:00N 48°17' W 123°48'816.1
2017-Oct-06 03:30N 48°16' W 123°36'713.2
2017-Oct-06 03:00N 48°20' W 123°27'510.6
2017-Oct-06 02:30N 48°23' W 123°21'612.7
2017-Oct-06 02:00N 48°25' W 123°12'713.1
2017-Oct-06 01:30N 48°32' W 123°13'612.7
2017-Oct-06 01:00N 48°38' W 123°14'510.5
2017-Oct-06 00:30N 48°43' W 123°12'612.3
2017-Oct-06 00:00N 48°46' W 123°04'5 9.0
2017-Oct-05 23:30N 48°50' W 123°03'713.0
2017-Oct-05 23:00N 48°55' W 123°10'612.6
2017-Oct-05 22:30N 48°59' W 123°17'612.7
2017-Oct-05 22:00N 49°04' W 123°23'612.8
2017-Oct-05 21:30N 49°10' W 123°22'612.8
2017-Oct-05 21:00N 49°17' W 123°20'611.6
2017-Oct-05 20:30N 49°19' W 123°12'4 8.0
2017-Oct-05 20:00N 49°18' W 123°06'4 8.0
2017-Oct-05 19:30N 49°18' W 122°60'1 2.4
2017-Oct-05 19:00N 49°18' W 122°58'2 3.1
2017-Oct-05 18:30N 49°18' W 122°56'2 4.6
2017-Oct-05 18:00N 49°17' W 122°52'0 0.0
2017-Oct-05 17:30N 49°17' W 122°52'0 0.0
2017-Oct-05 17:00N 49°17' W 122°52'0 0.0
2017-Oct-05 15:30N 49°17' W 122°52'0 0.0
2017-Oct-05 14:51N 49°17' W 122°52'0 0.0
2017-Oct-05 14:30N 49°17' W 122°52'0 0.0
2017-Oct-05 13:57N 49°17' W 122°52'0 0.0
2017-Oct-05 13:30N 49°17' W 122°52'0 0.0
2017-Oct-05 13:00N 49°17' W 122°52'0 0.0
2017-Oct-05 12:30N 49°17' W 122°52'0 0.0
2017-Oct-05 12:00N 49°17' W 122°52'0 0.0
2017-Oct-05 11:30N 49°17' W 122°52'0 0.0
2017-Oct-05 10:54N 49°17' W 122°52'0 0.0
2017-Oct-05 10:30N 49°17' W 122°52'0 0.0
2017-Oct-05 10:00N 49°17' W 122°52'0 0.0
2017-Oct-05 09:24N 49°17' W 122°52'0 0.0
2017-Oct-05 09:00N 49°17' W 122°52'0 0.0
2017-Oct-05 08:30N 49°17' W 122°52'0 0.0
2017-Oct-05 08:00N 49°17' W 122°52'0 0.0
2017-Oct-05 07:30N 49°17' W 122°52'0 0.0
2017-Oct-05 07:00N 49°17' W 122°52'0 0.0
2017-Oct-05 06:30N 49°17' W 122°52'0 0.0
2017-Oct-05 06:00N 49°17' W 122°52'0 0.0
2017-Oct-05 05:24N 49°17' W 122°52'0 0.0
2017-Oct-05 04:57N 49°17' W 122°52'0 0.0
2017-Oct-05 04:30N 49°17' W 122°52'0 0.0
2017-Oct-05 03:57N 49°17' W 122°52'0 0.0
2017-Oct-05 03:30N 49°17' W 122°52'0 0.0
2017-Oct-05 03:00N 49°17' W 122°52'0 0.0
2017-Oct-05 02:30N 49°17' W 122°52'0 0.0
2017-Oct-05 02:00N 49°17' W 122°52'0 0.0
2017-Oct-05 01:27N 49°17' W 122°52'0 0.0
2017-Oct-05 01:00N 49°17' W 122°52'0 0.0
2017-Oct-05 00:30N 49°17' W 122°52'0 0.0
2017-Oct-04 23:57N 49°17' W 122°52'0 0.0
2017-Oct-04 23:24N 49°17' W 122°52'0 0.0
2017-Oct-04 22:54N 49°17' W 122°52'0 0.0
2017-Oct-04 22:30N 49°17' W 122°52'0 0.0
2017-Oct-04 21:54N 49°17' W 122°52'0 0.0
2017-Oct-04 21:30N 49°17' W 122°52'0 0.0
2017-Oct-04 21:00N 49°17' W 122°52'0 0.0
2017-Oct-04 20:30N 49°17' W 122°52'0 0.0
2017-Oct-04 20:00N 49°17' W 122°52'0 0.0
2017-Oct-04 19:30N 49°17' W 122°52'0 0.0
2017-Oct-04 19:00N 49°17' W 122°52'0 0.0
2017-Oct-04 18:30N 49°17' W 122°52'0 0.0
2017-Oct-04 17:54N 49°17' W 122°52'0 0.0
2017-Oct-04 17:27N 49°17' W 122°52'0 0.0
2017-Oct-04 17:00N 49°17' W 122°52'0 0.0
2017-Oct-04 16:30N 49°17' W 122°52'0 0.0
2017-Oct-04 16:00N 49°17' W 122°52'0 0.0
2017-Oct-04 15:30N 49°17' W 122°52'0 0.0
2017-Oct-04 15:00N 49°17' W 122°52'0 0.0
2017-Oct-04 14:30N 49°17' W 122°52'0 0.0
2017-Oct-04 14:00N 49°17' W 122°52'0 0.0
2017-Oct-04 13:31N 49°17' W 122°52'1 3.0
2017-Oct-04 13:01N 49°18' W 122°54'3 6.8
2017-Oct-04 12:31N 49°18' W 122°60'1 3.0
2017-Oct-04 12:00N 49°18' W 123°02'0 0.0
2017-Oct-04 11:27N 49°18' W 123°02'0 0.0
2017-Oct-04 11:00N 49°18' W 123°02'0 0.0
2017-Oct-04 10:30N 49°18' W 123°02'0 0.0
2017-Oct-04 10:00N 49°18' W 123°02'0 0.0
2017-Oct-04 09:30N 49°18' W 123°02'0 0.0
2017-Oct-04 08:48N 49°18' W 123°02'0 0.1
2017-Oct-04 08:30N 49°18' W 123°02'0 0.1
2017-Oct-04 07:57N 49°18' W 123°02'0 0.0
2017-Oct-04 07:30N 49°18' W 123°02'0 0.0
2017-Oct-04 07:00N 49°18' W 123°02'0 0.0
2017-Oct-04 06:30N 49°18' W 123°02'0 0.0
2017-Oct-04 06:00N 49°18' W 123°02'0 0.0
2017-Oct-04 05:30N 49°18' W 123°02'0 0.0
2017-Oct-04 05:00N 49°18' W 123°02'0 0.0
2017-Oct-04 04:30N 49°18' W 123°02'0 0.1
2017-Oct-04 04:00N 49°18' W 123°02'0 0.1
2017-Oct-04 03:30N 49°18' W 123°02'0 0.0
2017-Oct-04 03:00N 49°18' W 123°02'0 0.0
2017-Oct-04 02:30N 49°18' W 123°02'0 0.0
2017-Oct-04 02:00N 49°18' W 123°02'0 0.0
2017-Oct-04 01:30N 49°18' W 123°02'0 0.0
2017-Oct-04 01:00N 49°18' W 123°02'0 0.0
2017-Oct-04 00:30N 49°18' W 123°02'0 0.0
2017-Oct-03 23:54N 49°18' W 123°02'0 0.0
2017-Oct-03 23:30N 49°18' W 123°02'0 0.0
2017-Oct-03 23:00N 49°18' W 123°02'0 0.0
2017-Oct-03 22:30N 49°18' W 123°02'0 0.0
2017-Oct-03 22:00N 49°18' W 123°02'0 0.0
2017-Oct-03 21:30N 49°18' W 123°02'0 0.0
2017-Oct-03 21:00N 49°18' W 123°02'0 0.0
2017-Oct-03 20:30N 49°18' W 123°02'0 0.0
2017-Oct-03 20:00N 49°18' W 123°02'0 0.0
2017-Oct-03 19:30N 49°18' W 123°02'0 0.0
2017-Oct-03 17:48N 49°18' W 123°02'0 0.0
2017-Oct-03 17:30N 49°18' W 123°02'0 0.0
2017-Oct-03 16:54N 49°18' W 123°02'0 0.0
2017-Oct-03 16:30N 49°18' W 123°02'0 0.0
2017-Oct-03 16:00N 49°18' W 123°02'0 0.0
2017-Oct-03 15:30N 49°18' W 123°02'0 0.0
2017-Oct-03 14:57N 49°18' W 123°02'0 0.0
2017-Oct-03 13:57N 49°18' W 123°02'0 0.0
2017-Oct-03 13:27N 49°18' W 123°02'0 0.0
2017-Oct-03 12:45N 49°18' W 123°02'0 0.0
2017-Oct-03 12:21N 49°18' W 123°02'0 0.0
2017-Oct-03 11:57N 49°18' W 123°02'0 0.0
2017-Oct-03 11:21N 49°18' W 123°02'0 0.0
2017-Oct-03 10:57N 49°18' W 123°02'0 0.0
2017-Oct-03 10:30N 49°18' W 123°02'0 0.0
2017-Oct-03 09:51N 49°18' W 123°02'0 0.0
2017-Oct-03 09:30N 49°18' W 123°02'0 0.0
2017-Oct-03 09:00N 49°18' W 123°02'0 0.0
2017-Oct-03 08:30N 49°18' W 123°02'0 0.0
2017-Oct-03 08:00N 49°18' W 123°02'0 0.0
2017-Oct-03 07:30N 49°18' W 123°02'0 0.0
2017-Oct-03 07:00N 49°18' W 123°02'0 0.0
2017-Oct-03 06:30N 49°18' W 123°02'0 0.0
2017-Oct-03 06:00N 49°18' W 123°02'0 0.0
2017-Oct-03 05:30N 49°18' W 123°02'0 0.0
2017-Oct-03 05:00N 49°18' W 123°02'0 0.0
2017-Oct-03 04:27N 49°18' W 123°02'0 0.0
2017-Oct-03 03:57N 49°18' W 123°02'0 0.0
2017-Oct-03 03:27N 49°18' W 123°02'0 0.0
2017-Oct-03 03:00N 49°18' W 123°02'0 0.0
2017-Oct-03 02:27N 49°18' W 123°02'0 0.0
2017-Oct-03 01:39N 49°18' W 123°02'0 0.0
2017-Oct-03 01:09N 49°18' W 123°02'0 0.0
2017-Oct-03 00:51N 49°18' W 123°02'0 0.0
2017-Oct-03 00:30N 49°18' W 123°02'0 0.0
2017-Oct-02 23:46N 49°18' W 123°02'0 0.8
2017-Oct-02 23:30N 49°18' W 123°02'1 2.8
2017-Oct-02 23:00N 49°17' W 123°04'0 0.1
2017-Oct-02 22:30N 49°17' W 123°04'0 0.0
2017-Oct-02 21:59N 49°17' W 123°04'0 0.0
2017-Oct-02 21:29N 49°17' W 123°04'0 0.0
2017-Oct-02 20:59N 49°17' W 123°04'0 0.0
2017-Oct-02 20:29N 49°17' W 123°04'0 0.0
2017-Oct-02 19:59N 49°17' W 123°04'0 0.0
2017-Oct-02 19:29N 49°17' W 123°04'0 0.0
2017-Oct-02 18:59N 49°17' W 123°04'0 0.0
2017-Oct-02 18:29N 49°17' W 123°04'0 0.0
2017-Oct-02 17:59N 49°17' W 123°04'0 0.0
2017-Oct-02 17:29N 49°17' W 123°04'0 0.0
2017-Oct-02 16:59N 49°17' W 123°04'0 0.0
2017-Oct-02 16:29N 49°17' W 123°04'0 0.0
2017-Oct-02 15:59N 49°17' W 123°04'0 0.0
2017-Oct-02 15:29N 49°17' W 123°04'0 0.0
2017-Oct-02 14:59N 49°17' W 123°04'0 0.0
2017-Oct-02 14:29N 49°17' W 123°04'0 0.0
2017-Oct-02 13:59N 49°17' W 123°04'0 0.0
2017-Oct-02 13:29N 49°17' W 123°04'0 0.0
2017-Oct-02 12:59N 49°17' W 123°04'0 0.0
2017-Oct-02 12:29N 49°17' W 123°04'0 0.0
2017-Oct-02 11:59N 49°17' W 123°04'0 0.0
2017-Oct-02 11:29N 49°17' W 123°04'0 0.0
2017-Oct-02 10:59N 49°17' W 123°04'0 0.0
2017-Oct-02 10:29N 49°17' W 123°04'0 0.0
2017-Oct-02 09:59N 49°17' W 123°04'0 0.0
2017-Oct-02 09:29N 49°17' W 123°04'0 0.0
2017-Oct-02 08:59N 49°17' W 123°04'0 0.0
2017-Oct-02 08:29N 49°17' W 123°04'0 0.0
2017-Oct-02 07:59N 49°17' W 123°04'0 0.0
2017-Oct-02 07:29N 49°17' W 123°04'0 0.0
2017-Oct-02 06:59N 49°17' W 123°04'0 0.0
2017-Oct-02 06:29N 49°17' W 123°04'0 0.0
2017-Oct-02 05:59N 49°17' W 123°04'0 0.0
2017-Oct-02 05:29N 49°17' W 123°04'0 0.0
2017-Oct-02 04:59N 49°17' W 123°04'0 0.0
2017-Oct-02 04:29N 49°17' W 123°04'0 0.0
2017-Oct-02 03:59N 49°17' W 123°04'0 0.0
2017-Oct-02 03:29N 49°17' W 123°04'0 0.0
2017-Oct-02 02:59N 49°17' W 123°04'0 0.0
2017-Oct-02 02:29N 49°17' W 123°04'0 0.0
2017-Oct-02 01:59N 49°17' W 123°04'0 0.0
2017-Oct-02 01:29N 49°17' W 123°04'0 0.0
2017-Oct-02 00:59N 49°17' W 123°04'0 0.0
2017-Oct-02 00:29N 49°17' W 123°04'0 0.0
2017-Oct-01 23:59N 49°17' W 123°04'0 0.0
2017-Oct-01 23:29N 49°17' W 123°04'0 0.0
2017-Oct-01 22:59N 49°17' W 123°04'0 0.0
2017-Oct-01 22:29N 49°17' W 123°04'0 0.0
2017-Oct-01 21:59N 49°17' W 123°04'0 0.0
2017-Oct-01 21:29N 49°17' W 123°04'0 0.0
2017-Oct-01 20:59N 49°17' W 123°04'0 0.0
2017-Oct-01 20:29N 49°17' W 123°04'0 0.0
2017-Oct-01 19:59N 49°17' W 123°04'0 0.0
2017-Oct-01 19:29N 49°17' W 123°04'0 0.0
2017-Oct-01 18:59N 49°17' W 123°04'0 0.0
2017-Oct-01 18:29N 49°17' W 123°04'0 0.0
2017-Oct-01 17:59N 49°17' W 123°04'0 0.0
2017-Oct-01 17:29N 49°17' W 123°04'0 0.0
2017-Oct-01 16:59N 49°17' W 123°04'0 0.0
2017-Oct-01 16:29N 49°17' W 123°04'0 0.0
2017-Oct-01 15:59N 49°17' W 123°04'0 0.0
2017-Oct-01 15:29N 49°17' W 123°04'0 0.0
2017-Oct-01 14:59N 49°17' W 123°04'0 0.0
2017-Oct-01 14:29N 49°17' W 123°04'0 0.0
2017-Oct-01 13:59N 49°17' W 123°04'0 0.0
2017-Oct-01 13:29N 49°17' W 123°04'0 0.0
2017-Oct-01 12:59N 49°17' W 123°04'0 0.0
2017-Oct-01 12:29N 49°17' W 123°04'0 0.0
2017-Oct-01 11:59N 49°17' W 123°04'0 0.0
2017-Oct-01 11:29N 49°17' W 123°04'0 0.0
2017-Oct-01 10:59N 49°17' W 123°04'0 0.0
2017-Oct-01 10:29N 49°17' W 123°04'0 0.0
2017-Oct-01 09:59N 49°17' W 123°04'0 0.0
2017-Oct-01 09:29N 49°17' W 123°04'0 0.0
2017-Oct-01 08:59N 49°17' W 123°04'0 0.0
2017-Oct-01 08:29N 49°17' W 123°04'0 0.0
2017-Oct-01 07:59N 49°17' W 123°04'0 0.0
2017-Oct-01 07:29N 49°17' W 123°04'0 0.0
2017-Oct-01 06:59N 49°17' W 123°04'0 0.0
2017-Oct-01 06:30N 49°17' W 123°04'0 0.8
2017-Oct-01 06:00N 49°18' W 123°04'2 3.2
2017-Oct-01 05:30N 49°18' W 123°07'3 7.0
2017-Oct-01 05:00N 49°19' W 123°12'611.0
2017-Oct-01 04:30N 49°15' W 123°19'713.8
2017-Oct-01 04:00N 49°09' W 123°20'611.6
2017-Oct-01 03:30N 49°03' W 123°19'713.7
2017-Oct-01 03:00N 48°58' W 123°11'  
2017-Sep-28 02:40N 38°07' W 126°25'613.5
2017-Sep-28 02:13N 38°04' W 126°18'313.5
2017-Sep-28 01:59N 38°03' W 126°14'813.6
2017-Sep-28 01:26N 38°00' W 126°05'614.0
2017-Sep-28 01:00N 37°59' W 125°58'914.0
2017-Sep-28 00:21N 37°58' W 125°46'614.3
2017-Sep-27 23:58N 37°56' W 125°39'714.3
2017-Sep-27 23:30N 37°54' W 125°32'714.5
2017-Sep-27 23:00N 37°52' W 125°23'714.9
2017-Sep-27 22:30N 37°51' W 125°13'714.4
2017-Sep-27 22:00N 37°49' W 125°05'714.7
2017-Sep-27 21:30N 37°48' W 124°55'714.8
2017-Sep-27 21:00N 37°47' W 124°46'714.6
2017-Sep-27 20:30N 37°45' W 124°37'714.1
2017-Sep-27 20:00N 37°44' W 124°28'714.5
2017-Sep-27 19:30N 37°42' W 124°19'714.4
2017-Sep-27 19:00N 37°41' W 124°10'714.6
2017-Sep-27 18:30N 37°40' W 124°01'714.5
2017-Sep-27 18:00N 37°38' W 123°53'714.1
2017-Sep-27 17:30N 37°36' W 123°44'714.0
2017-Sep-27 17:00N 37°35' W 123°35'714.3
2017-Sep-27 16:30N 37°33' W 123°27'714.3
2017-Sep-27 16:00N 37°31' W 123°18'713.4
2017-Sep-27 15:30N 37°31' W 123°09'714.1
2017-Sep-27 15:00N 37°35' W 123°02'714.5
2017-Sep-27 14:30N 37°39' W 122°54'714.4
2017-Sep-27 14:00N 37°43' W 122°47'612.0
2017-Sep-27 13:30N 37°46' W 122°40'612.5
2017-Sep-27 13:00N 37°48' W 122°33'612.4
2017-Sep-27 12:30N 37°50' W 122°25'510.7
2017-Sep-27 12:00N 37°46' W 122°21'0 0.3
2017-Sep-27 11:30N 37°46' W 122°21'0 0.0
2017-Sep-27 11:00N 37°46' W 122°21'0 0.0
2017-Sep-27 10:30N 37°46' W 122°21'0 0.0
2017-Sep-27 10:00N 37°46' W 122°21'0 0.0
2017-Sep-27 09:30N 37°46' W 122°21'0 0.0
2017-Sep-27 09:00N 37°46' W 122°21'0 0.0
2017-Sep-27 08:30N 37°46' W 122°21'0 0.1
2017-Sep-27 08:00N 37°46' W 122°21'0 0.1
2017-Sep-27 07:30N 37°46' W 122°21'0 0.2
2017-Sep-27 07:00N 37°46' W 122°21'0 0.1
2017-Sep-27 06:30N 37°46' W 122°21'0 0.0
2017-Sep-27 06:00N 37°46' W 122°21'0 0.1
2017-Sep-27 05:30N 37°46' W 122°21'0 0.0
2017-Sep-27 05:00N 37°46' W 122°21'0 0.0
2017-Sep-27 04:30N 37°46' W 122°21'0 0.0
2017-Sep-27 04:00N 37°46' W 122°21'0 0.1
2017-Sep-27 03:30N 37°46' W 122°21'2 3.3
2017-Sep-27 03:00N 37°48' W 122°22'611.3
2017-Sep-27 02:30N 37°53' W 122°25'3 5.2
2017-Sep-27 02:00N 37°55' W 122°25'0 0.0
2017-Sep-27 01:27N 37°55' W 122°25'0 0.0
2017-Sep-26 23:06N 37°55' W 122°25'0 0.0
2017-Sep-26 21:33N 37°55' W 122°25'0 0.0
2017-Sep-26 21:24N 37°55' W 122°25'0 0.0
2017-Sep-26 19:15N 37°55' W 122°25'0 0.0
2017-Sep-26 18:57N 37°55' W 122°25'0 0.0
2017-Sep-26 17:48N 37°55' W 122°25'0 0.0
2017-Sep-26 16:48N 37°55' W 122°25'0 0.0
2017-Sep-26 16:24N 37°55' W 122°25'0 0.0
2017-Sep-26 14:09N 37°55' W 122°25'0 0.0
2017-Sep-26 13:45N 37°55' W 122°25'0 0.2
2017-Sep-26 13:30N 37°55' W 122°25'0 0.1
2017-Sep-26 13:00N 37°55' W 122°25'1 1.6
2017-Sep-26 12:30N 37°55' W 122°24'  

Dump ship's entire track history